aviador You're here:

SAZN Decoded Metar

NEUQUEN in ARGENTINA
Report Time2018-02-21 04:00:00
UTC Time2018-02-21 04:56:23
Flight Rules vfr VFR
Wind140° at 02 kt
W.Decomp.*RWY 09: 1.4 kt HW 1.4 kt RCW
W.Rank140° ranks 8
Current wind is below 140° avg. (3.8)
Visibility9999 m
Phenomena:N/A
Clouds:N/A
Expected CloudBase > 1,600 ft AGL from Temp-Dew spread
CeilingNone
Temp15°C (ISA +2)
Dew Point11°C (77% RH)
AAT14.6°C
QNH1016 hPa
Density Alt1,175 ft
Elevation889 ft
Report Wrong Elevation
Raw Report
METAR SAZN 210400Z 14002KT CAVOK 15/11 Q1016=

Extra information for SAZN:More info

Metar Taf Metar & Taf Last 4 Metars F.Rules Stats Wind Profile Meteogram Temp Stats Airport Information Weather charts Add Link Nearby VenuesMetar ALERT Operation Metar Decoded Social comments